Terminal Aerodrome Forecast
Issued by NWS Sterling, VA

Home | Current Version | Previous Version | Text Only | Print | Product List | Glossary On
Versions: 1 2 3 4 5 6 7 8 9 10 11 12
271
FTUS41 KLWX 162350
TAFMRB
TAF
KMRB 162350Z 1700/1724 34004KT 2SM -SN OVC020
     FM170600 32006KT 3SM -SN OVC030
     FM170800 32009KT P6SM OVC030
     FM171200 32010G17KT P6SM OVC060
     FM171500 31013G22KT P6SM BKN150=

USA.gov is the U.S. government's official web portal to all federal, state and local government web resources and services.